sensor_id;sensor_type;location;lat;lon;timestamp;P1;durP1;ratioP1;P2;durP2;ratioP2
20000;SDS011;10161;41.188;-8.642;2023-11-21T00:01:03;4.40;;;4.00;;
20000;SDS011;10161;41.188;-8.642;2023-11-21T00:03:30;4.17;;;3.83;;
20000;SDS011;10161;41.188;-8.642;2023-11-21T00:05:57;4.67;;;4.17;;
20000;SDS011;10161;41.188;-8.642;2023-11-21T00:08:25;5.13;;;4.30;;
20000;SDS011;10161;41.188;-8.642;2023-11-21T00:10:52;5.47;;;4.40;;
20000;SDS011;10161;41.188;-8.642;2023-11-21T00:13:20;4.50;;;4.10;;
20000;SDS011;10161;41.188;-8.642;2023-11-21T00:15:47;5.13;;;4.60;;
20000;SDS011;10161;41.188;-8.642;2023-11-21T00:18:14;4.80;;;4.40;;
20000;SDS011;10161;41.188;-8.642;2023-11-21T00:20:41;4.57;;;4.17;;
20000;SDS011;10161;41.188;-8.642;2023-11-21T00:23:08;4.73;;;4.33;;
20000;SDS011;10161;41.188;-8.642;2023-11-21T00:25:37;4.17;;;3.87;;
20000;SDS011;10161;41.188;-8.642;2023-11-21T00:28:05;4.80;;;3.97;;
20000;SDS011;10161;41.188;-8.642;2023-11-21T00:30:32;4.53;;;4.00;;
20000;SDS011;10161;41.188;-8.642;2023-11-21T00:32:59;4.67;;;4.20;;
20000;SDS011;10161;41.188;-8.642;2023-11-21T00:35:25;4.97;;;4.47;;
20000;SDS011;10161;41.188;-8.642;2023-11-21T00:37:52;4.53;;;4.10;;
20000;SDS011;10161;41.188;-8.642;2023-11-21T00:40:19;4.27;;;3.87;;
20000;SDS011;10161;41.188;-8.642;2023-11-21T00:42:48;3.70;;;3.40;;
20000;SDS011;10161;41.188;-8.642;2023-11-21T00:45:15;4.27;;;3.87;;
20000;SDS011;10161;41.188;-8.642;2023-11-21T00:47:42;4.30;;;3.90;;
20000;SDS011;10161;41.188;-8.642;2023-11-21T00:50:09;6.20;;;4.57;;
20000;SDS011;10161;41.188;-8.642;2023-11-21T00:52:36;3.80;;;3.50;;
20000;SDS011;10161;41.188;-8.642;2023-11-21T00:55:03;3.97;;;3.30;;
20000;SDS011;10161;41.188;-8.642;2023-11-21T00:57:32;4.20;;;3.80;;
20000;SDS011;10161;41.188;-8.642;2023-11-21T01:00:01;3.77;;;3.47;;
20000;SDS011;10161;41.188;-8.642;2023-11-21T01:02:32;4.03;;;3.67;;
20000;SDS011;10161;41.188;-8.642;2023-11-21T01:05:00;3.60;;;3.30;;
20000;SDS011;10161;41.188;-8.642;2023-11-21T01:07:28;4.50;;;3.80;;
20000;SDS011;10161;41.188;-8.642;2023-11-21T01:09:55;3.63;;;3.33;;
20000;SDS011;10161;41.188;-8.642;2023-11-21T01:12:22;3.77;;;3.37;;
20000;SDS011;10161;41.188;-8.642;2023-11-21T01:14:50;4.13;;;3.70;;
20000;SDS011;10161;41.188;-8.642;2023-11-21T01:17:18;4.40;;;3.77;;
20000;SDS011;10161;41.188;-8.642;2023-11-21T01:19:47;4.00;;;3.70;;
20000;SDS011;10161;41.188;-8.642;2023-11-21T01:22:14;3.50;;;3.20;;
20000;SDS011;10161;41.188;-8.642;2023-11-21T01:24:43;3.80;;;3.50;;
20000;SDS011;10161;41.188;-8.642;2023-11-21T01:27:10;3.60;;;3.30;;
20000;SDS011;10161;41.188;-8.642;2023-11-21T01:29:36;3.90;;;3.50;;
20000;SDS011;10161;41.188;-8.642;2023-11-21T01:32:04;4.27;;;3.87;;
20000;SDS011;10161;41.188;-8.642;2023-11-21T01:34:34;4.07;;;3.67;;
20000;SDS011;10161;41.188;-8.642;2023-11-21T01:37:01;3.53;;;3.23;;
20000;SDS011;10161;41.188;-8.642;2023-11-21T01:39:29;3.97;;;3.17;;
20000;SDS011;10161;41.188;-8.642;2023-11-21T01:41:56;4.43;;;3.40;;
20000;SDS011;10161;41.188;-8.642;2023-11-21T01:44:24;3.63;;;3.10;;
20000;SDS011;10161;41.188;-8.642;2023-11-21T01:46:51;3.40;;;3.10;;
20000;SDS011;10161;41.188;-8.642;2023-11-21T01:49:19;3.13;;;2.83;;
20000;SDS011;10161;41.188;-8.642;2023-11-21T01:51:47;3.40;;;3.10;;
20000;SDS011;10161;41.188;-8.642;2023-11-21T01:54:15;3.80;;;3.30;;
20000;SDS011;10161;41.188;-8.642;2023-11-21T01:56:43;2.97;;;2.70;;
20000;SDS011;10161;41.188;-8.642;2023-11-21T01:59:12;3.23;;;2.93;;
20000;SDS011;10161;41.188;-8.642;2023-11-21T02:01:41;3.30;;;3.00;;
20000;SDS011;10161;41.188;-8.642;2023-11-21T02:04:09;3.43;;;3.13;;
20000;SDS011;10161;41.188;-8.642;2023-11-21T02:06:36;3.00;;;2.70;;
20000;SDS011;10161;41.188;-8.642;2023-11-21T02:09:05;3.23;;;2.93;;
20000;SDS011;10161;41.188;-8.642;2023-11-21T02:11:34;3.10;;;2.80;;
20000;SDS011;10161;41.188;-8.642;2023-11-21T02:14:01;3.70;;;3.07;;
20000;SDS011;10161;41.188;-8.642;2023-11-21T02:16:28;2.43;;;2.23;;
20000;SDS011;10161;41.188;-8.642;2023-11-21T02:18:56;3.20;;;2.73;;
20000;SDS011;10161;41.188;-8.642;2023-11-21T02:21:24;3.27;;;2.70;;
20000;SDS011;10161;41.188;-8.642;2023-11-21T02:23:53;2.87;;;2.60;;
20000;SDS011;10161;41.188;-8.642;2023-11-21T02:26:21;3.10;;;2.60;;
20000;SDS011;10161;41.188;-8.642;2023-11-21T02:28:48;2.97;;;2.70;;
20000;SDS011;10161;41.188;-8.642;2023-11-21T02:31:18;3.03;;;2.70;;
20000;SDS011;10161;41.188;-8.642;2023-11-21T02:33:45;3.27;;;2.93;;
20000;SDS011;10161;41.188;-8.642;2023-11-21T02:36:12;3.23;;;2.93;;
20000;SDS011;10161;41.188;-8.642;2023-11-21T02:38:39;2.50;;;2.30;;
20000;SDS011;10161;41.188;-8.642;2023-11-21T02:41:07;2.50;;;2.30;;
20000;SDS011;10161;41.188;-8.642;2023-11-21T02:43:34;2.90;;;2.60;;
20000;SDS011;10161;41.188;-8.642;2023-11-21T02:46:03;3.27;;;2.30;;
20000;SDS011;10161;41.188;-8.642;2023-11-21T02:48:31;5.60;;;2.90;;
20000;SDS011;10161;41.188;-8.642;2023-11-21T02:50:58;3.37;;;2.70;;
20000;SDS011;10161;41.188;-8.642;2023-11-21T02:53:24;3.27;;;2.80;;
20000;SDS011;10161;41.188;-8.642;2023-11-21T02:55:51;2.93;;;2.63;;
20000;SDS011;10161;41.188;-8.642;2023-11-21T02:58:20;2.40;;;2.20;;
20000;SDS011;10161;41.188;-8.642;2023-11-21T03:00:47;2.40;;;2.20;;
20000;SDS011;10161;41.188;-8.642;2023-11-21T03:03:13;2.73;;;2.33;;
20000;SDS011;10161;41.188;-8.642;2023-11-21T03:05:40;3.07;;;2.70;;
20000;SDS011;10161;41.188;-8.642;2023-11-21T03:08:08;2.50;;;2.30;;
20000;SDS011;10161;41.188;-8.642;2023-11-21T03:10:35;2.77;;;2.30;;
20000;SDS011;10161;41.188;-8.642;2023-11-21T03:13:02;2.57;;;2.20;;
20000;SDS011;10161;41.188;-8.642;2023-11-21T03:15:31;2.90;;;2.60;;
20000;SDS011;10161;41.188;-8.642;2023-11-21T03:17:58;2.63;;;2.43;;
20000;SDS011;10161;41.188;-8.642;2023-11-21T03:20:25;2.50;;;2.30;;
20000;SDS011;10161;41.188;-8.642;2023-11-21T03:22:52;2.63;;;1.93;;
20000;SDS011;10161;41.188;-8.642;2023-11-21T03:25:19;2.40;;;2.20;;
20000;SDS011;10161;41.188;-8.642;2023-11-21T03:27:45;3.00;;;2.33;;
20000;SDS011;10161;41.188;-8.642;2023-11-21T03:30:12;2.10;;;1.90;;
20000;SDS011;10161;41.188;-8.642;2023-11-21T03:32:41;2.80;;;2.07;;
20000;SDS011;10161;41.188;-8.642;2023-11-21T03:35:08;1.80;;;1.70;;
20000;SDS011;10161;41.188;-8.642;2023-11-21T03:37:35;2.27;;;2.07;;
20000;SDS011;10161;41.188;-8.642;2023-11-21T03:40:04;2.93;;;2.60;;
20000;SDS011;10161;41.188;-8.642;2023-11-21T03:42:33;2.30;;;2.03;;
20000;SDS011;10161;41.188;-8.642;2023-11-21T03:45:00;2.17;;;1.97;;
20000;SDS011;10161;41.188;-8.642;2023-11-21T03:47:28;2.33;;;2.13;;
20000;SDS011;10161;41.188;-8.642;2023-11-21T03:49:56;2.50;;;2.13;;
20000;SDS011;10161;41.188;-8.642;2023-11-21T03:52:23;2.50;;;2.30;;
20000;SDS011;10161;41.188;-8.642;2023-11-21T03:54:50;2.00;;;1.90;;
20000;SDS011;10161;41.188;-8.642;2023-11-21T03:57:17;3.03;;;2.17;;
20000;SDS011;10161;41.188;-8.642;2023-11-21T03:59:44;2.37;;;2.03;;
20000;SDS011;10161;41.188;-8.642;2023-11-21T04:02:11;1.93;;;1.73;;
20000;SDS011;10161;41.188;-8.642;2023-11-21T04:04:38;2.50;;;1.97;;
20000;SDS011;10161;41.188;-8.642;2023-11-21T04:07:07;1.93;;;1.70;;
20000;SDS011;10161;41.188;-8.642;2023-11-21T04:09:34;2.03;;;1.83;;
20000;SDS011;10161;41.188;-8.642;2023-11-21T04:12:01;1.80;;;1.70;;
20000;SDS011;10161;41.188;-8.642;2023-11-21T04:14:28;2.17;;;1.97;;
20000;SDS011;10161;41.188;-8.642;2023-11-21T04:16:55;1.70;;;1.60;;
20000;SDS011;10161;41.188;-8.642;2023-11-21T04:19:22;2.00;;;1.87;;
20000;SDS011;10161;41.188;-8.642;2023-11-21T04:21:49;2.20;;;2.00;;
20000;SDS011;10161;41.188;-8.642;2023-11-21T04:24:18;2.17;;;1.83;;
20000;SDS011;10161;41.188;-8.642;2023-11-21T04:26:45;2.40;;;2.20;;
20000;SDS011;10161;41.188;-8.642;2023-11-21T04:29:12;1.60;;;1.50;;
20000;SDS011;10161;41.188;-8.642;2023-11-21T04:31:39;2.60;;;2.00;;
20000;SDS011;10161;41.188;-8.642;2023-11-21T04:34:06;2.10;;;1.97;;
20000;SDS011;10161;41.188;-8.642;2023-11-21T04:36:33;2.00;;;1.80;;
20000;SDS011;10161;41.188;-8.642;2023-11-21T04:39:01;1.83;;;1.73;;
20000;SDS011;10161;41.188;-8.642;2023-11-21T04:41:29;2.30;;;2.10;;
20000;SDS011;10161;41.188;-8.642;2023-11-21T04:43:57;2.57;;;2.07;;
20000;SDS011;10161;41.188;-8.642;2023-11-21T04:46:25;1.70;;;1.60;;
20000;SDS011;10161;41.188;-8.642;2023-11-21T04:48:52;2.60;;;2.00;;
20000;SDS011;10161;41.188;-8.642;2023-11-21T04:51:19;2.00;;;1.80;;
20000;SDS011;10161;41.188;-8.642;2023-11-21T04:53:46;1.87;;;1.73;;
20000;SDS011;10161;41.188;-8.642;2023-11-21T04:56:13;1.87;;;1.70;;
20000;SDS011;10161;41.188;-8.642;2023-11-21T04:58:42;2.17;;;1.97;;
20000;SDS011;10161;41.188;-8.642;2023-11-21T05:01:09;2.27;;;1.73;;
20000;SDS011;10161;41.188;-8.642;2023-11-21T05:03:37;2.90;;;2.10;;
20000;SDS011;10161;41.188;-8.642;2023-11-21T05:06:04;3.97;;;1.77;;
20000;SDS011;10161;41.188;-8.642;2023-11-21T05:08:31;1.87;;;1.60;;
20000;SDS011;10161;41.188;-8.642;2023-11-21T05:10:58;1.80;;;1.60;;
20000;SDS011;10161;41.188;-8.642;2023-11-21T05:13:25;1.60;;;1.47;;
20000;SDS011;10161;41.188;-8.642;2023-11-21T05:15:54;1.70;;;1.50;;
20000;SDS011;10161;41.188;-8.642;2023-11-21T05:18:21;3.20;;;1.70;;
20000;SDS011;10161;41.188;-8.642;2023-11-21T05:20:48;2.03;;;1.83;;
20000;SDS011;10161;41.188;-8.642;2023-11-21T05:23:15;2.03;;;1.70;;
20000;SDS011;10161;41.188;-8.642;2023-11-21T05:25:42;1.70;;;1.50;;
20000;SDS011;10161;41.188;-8.642;2023-11-21T05:28:09;2.13;;;1.87;;
20000;SDS011;10161;41.188;-8.642;2023-11-21T05:30:36;1.97;;;1.87;;
20000;SDS011;10161;41.188;-8.642;2023-11-21T05:33:05;1.60;;;1.50;;
20000;SDS011;10161;41.188;-8.642;2023-11-21T05:35:32;1.50;;;1.40;;
20000;SDS011;10161;41.188;-8.642;2023-11-21T05:37:59;3.33;;;1.80;;
20000;SDS011;10161;41.188;-8.642;2023-11-21T05:40:26;2.20;;;1.73;;
20000;SDS011;10161;41.188;-8.642;2023-11-21T05:42:55;2.33;;;1.73;;
20000;SDS011;10161;41.188;-8.642;2023-11-21T05:45:22;1.50;;;1.40;;
20000;SDS011;10161;41.188;-8.642;2023-11-21T05:47:49;2.00;;;1.70;;
20000;SDS011;10161;41.188;-8.642;2023-11-21T05:50:17;1.53;;;1.43;;
20000;SDS011;10161;41.188;-8.642;2023-11-21T05:52:44;2.13;;;1.50;;
20000;SDS011;10161;41.188;-8.642;2023-11-21T05:55:12;1.90;;;1.60;;
20000;SDS011;10161;41.188;-8.642;2023-11-21T05:57:40;1.83;;;1.50;;
20000;SDS011;10161;41.188;-8.642;2023-11-21T06:00:08;1.70;;;1.60;;
20000;SDS011;10161;41.188;-8.642;2023-11-21T06:02:40;2.30;;;1.60;;
20000;SDS011;10161;41.188;-8.642;2023-11-21T06:05:07;1.63;;;1.53;;
20000;SDS011;10161;41.188;-8.642;2023-11-21T06:07:37;1.60;;;1.50;;
20000;SDS011;10161;41.188;-8.642;2023-11-21T06:10:05;1.60;;;1.50;;
20000;SDS011;10161;41.188;-8.642;2023-11-21T06:12:35;1.40;;;1.30;;
20000;SDS011;10161;41.188;-8.642;2023-11-21T06:15:02;1.60;;;1.50;;
20000;SDS011;10161;41.188;-8.642;2023-11-21T06:17:30;1.80;;;1.70;;
20000;SDS011;10161;41.188;-8.642;2023-11-21T06:19:57;2.53;;;1.70;;
20000;SDS011;10161;41.188;-8.642;2023-11-21T06:22:26;1.40;;;1.30;;
20000;SDS011;10161;41.188;-8.642;2023-11-21T06:24:54;2.80;;;1.80;;
20000;SDS011;10161;41.188;-8.642;2023-11-21T06:27:21;1.70;;;1.60;;
20000;SDS011;10161;41.188;-8.642;2023-11-21T06:29:50;2.17;;;1.70;;
20000;SDS011;10161;41.188;-8.642;2023-11-21T06:32:17;3.60;;;1.70;;
20000;SDS011;10161;41.188;-8.642;2023-11-21T06:34:45;2.13;;;1.73;;
20000;SDS011;10161;41.188;-8.642;2023-11-21T06:37:12;2.07;;;1.87;;
20000;SDS011;10161;41.188;-8.642;2023-11-21T06:39:39;2.20;;;1.93;;
20000;SDS011;10161;41.188;-8.642;2023-11-21T06:42:08;2.13;;;1.90;;
20000;SDS011;10161;41.188;-8.642;2023-11-21T06:44:36;2.87;;;2.60;;
20000;SDS011;10161;41.188;-8.642;2023-11-21T06:47:03;2.70;;;2.07;;
20000;SDS011;10161;41.188;-8.642;2023-11-21T06:49:30;2.47;;;2.27;;
20000;SDS011;10161;41.188;-8.642;2023-11-21T06:51:57;2.37;;;2.17;;
20000;SDS011;10161;41.188;-8.642;2023-11-21T06:54:24;3.27;;;2.30;;
20000;SDS011;10161;41.188;-8.642;2023-11-21T06:56:52;2.60;;;2.33;;
20000;SDS011;10161;41.188;-8.642;2023-11-21T06:59:21;2.30;;;2.03;;
20000;SDS011;10161;41.188;-8.642;2023-11-21T07:01:48;2.37;;;2.17;;
20000;SDS011;10161;41.188;-8.642;2023-11-21T07:04:15;2.67;;;2.10;;
20000;SDS011;10161;41.188;-8.642;2023-11-21T07:06:43;2.67;;;2.20;;
20000;SDS011;10161;41.188;-8.642;2023-11-21T07:09:10;2.70;;;2.13;;
20000;SDS011;10161;41.188;-8.642;2023-11-21T07:11:38;2.37;;;1.93;;
20000;SDS011;10161;41.188;-8.642;2023-11-21T07:14:05;2.93;;;2.73;;
20000;SDS011;10161;41.188;-8.642;2023-11-21T07:16:34;2.77;;;2.37;;
20000;SDS011;10161;41.188;-8.642;2023-11-21T07:19:02;2.73;;;2.17;;
20000;SDS011;10161;41.188;-8.642;2023-11-21T07:21:31;4.67;;;2.07;;
20000;SDS011;10161;41.188;-8.642;2023-11-21T07:23:58;2.37;;;2.17;;
20000;SDS011;10161;41.188;-8.642;2023-11-21T07:26:26;2.47;;;2.10;;
20000;SDS011;10161;41.188;-8.642;2023-11-21T07:28:53;2.77;;;2.40;;
20000;SDS011;10161;41.188;-8.642;2023-11-21T07:31:20;2.83;;;2.30;;
20000;SDS011;10161;41.188;-8.642;2023-11-21T07:33:50;2.97;;;2.23;;
20000;SDS011;10161;41.188;-8.642;2023-11-21T07:36:17;3.50;;;2.40;;
20000;SDS011;10161;41.188;-8.642;2023-11-21T07:38:45;2.30;;;1.97;;
20000;SDS011;10161;41.188;-8.642;2023-11-21T07:41:13;4.03;;;2.40;;
20000;SDS011;10161;41.188;-8.642;2023-11-21T07:43:40;2.47;;;2.10;;
20000;SDS011;10161;41.188;-8.642;2023-11-21T07:46:07;2.50;;;2.10;;
20000;SDS011;10161;41.188;-8.642;2023-11-21T07:48:34;2.70;;;2.33;;
20000;SDS011;10161;41.188;-8.642;2023-11-21T07:51:03;3.27;;;2.10;;
20000;SDS011;10161;41.188;-8.642;2023-11-21T07:53:30;3.00;;;2.17;;
20000;SDS011;10161;41.188;-8.642;2023-11-21T07:55:57;2.50;;;2.20;;
20000;SDS011;10161;41.188;-8.642;2023-11-21T07:58:25;2.67;;;2.43;;
20000;SDS011;10161;41.188;-8.642;2023-11-21T08:00:51;2.60;;;2.20;;
20000;SDS011;10161;41.188;-8.642;2023-11-21T08:03:18;3.20;;;2.10;;
20000;SDS011;10161;41.188;-8.642;2023-11-21T08:05:46;2.50;;;2.17;;
20000;SDS011;10161;41.188;-8.642;2023-11-21T08:08:14;2.53;;;2.23;;
20000;SDS011;10161;41.188;-8.642;2023-11-21T08:10:43;2.50;;;2.10;;
20000;SDS011;10161;41.188;-8.642;2023-11-21T08:13:21;2.63;;;2.20;;
20000;SDS011;10161;41.188;-8.642;2023-11-21T08:15:48;2.63;;;1.97;;
20000;SDS011;10161;41.188;-8.642;2023-11-21T08:18:15;2.67;;;2.10;;
20000;SDS011;10161;41.188;-8.642;2023-11-21T08:20:43;2.27;;;1.80;;
20000;SDS011;10161;41.188;-8.642;2023-11-21T08:23:14;2.77;;;1.83;;
20000;SDS011;10161;41.188;-8.642;2023-11-21T08:25:42;3.57;;;1.93;;
20000;SDS011;10161;41.188;-8.642;2023-11-21T08:28:09;3.07;;;2.10;;
20000;SDS011;10161;41.188;-8.642;2023-11-21T08:30:36;3.60;;;2.03;;
20000;SDS011;10161;41.188;-8.642;2023-11-21T08:33:03;2.60;;;2.00;;
20000;SDS011;10161;41.188;-8.642;2023-11-21T08:35:31;2.23;;;1.93;;
20000;SDS011;10161;41.188;-8.642;2023-11-21T08:37:57;2.30;;;1.83;;
20000;SDS011;10161;41.188;-8.642;2023-11-21T08:40:26;4.13;;;1.83;;
20000;SDS011;10161;41.188;-8.642;2023-11-21T08:42:53;2.03;;;1.80;;
20000;SDS011;10161;41.188;-8.642;2023-11-21T08:45:20;2.20;;;1.80;;
20000;SDS011;10161;41.188;-8.642;2023-11-21T08:47:47;2.30;;;1.80;;
20000;SDS011;10161;41.188;-8.642;2023-11-21T08:50:15;2.17;;;1.80;;
20000;SDS011;10161;41.188;-8.642;2023-11-21T08:52:44;2.70;;;1.67;;
20000;SDS011;10161;41.188;-8.642;2023-11-21T08:55:12;2.33;;;1.97;;
20000;SDS011;10161;41.188;-8.642;2023-11-21T08:57:40;2.83;;;1.50;;
20000;SDS011;10161;41.188;-8.642;2023-11-21T09:00:10;4.83;;;2.03;;
20000;SDS011;10161;41.188;-8.642;2023-11-21T09:02:37;2.30;;;2.10;;
20000;SDS011;10161;41.188;-8.642;2023-11-21T09:05:07;3.50;;;1.73;;
20000;SDS011;10161;41.188;-8.642;2023-11-21T09:07:34;2.47;;;2.10;;
20000;SDS011;10161;41.188;-8.642;2023-11-21T09:10:01;2.83;;;1.93;;
20000;SDS011;10161;41.188;-8.642;2023-11-21T09:12:28;3.10;;;2.30;;
20000;SDS011;10161;41.188;-8.642;2023-11-21T09:14:59;3.20;;;1.97;;
20000;SDS011;10161;41.188;-8.642;2023-11-21T09:17:26;2.93;;;2.17;;
20000;SDS011;10161;41.188;-8.642;2023-11-21T09:19:53;2.43;;;2.00;;
20000;SDS011;10161;41.188;-8.642;2023-11-21T09:22:20;3.17;;;2.20;;
20000;SDS011;10161;41.188;-8.642;2023-11-21T09:24:47;3.00;;;2.13;;
20000;SDS011;10161;41.188;-8.642;2023-11-21T09:27:14;3.40;;;2.13;;
20000;SDS011;10161;41.188;-8.642;2023-11-21T09:29:40;3.70;;;2.40;;
20000;SDS011;10161;41.188;-8.642;2023-11-21T09:32:09;2.70;;;2.00;;
20000;SDS011;10161;41.188;-8.642;2023-11-21T09:34:37;3.27;;;2.30;;
20000;SDS011;10161;41.188;-8.642;2023-11-21T09:37:05;2.60;;;2.20;;
20000;SDS011;10161;41.188;-8.642;2023-11-21T09:39:32;3.03;;;2.10;;
20000;SDS011;10161;41.188;-8.642;2023-11-21T09:42:02;2.33;;;2.13;;
20000;SDS011;10161;41.188;-8.642;2023-11-21T09:44:32;3.13;;;2.50;;
20000;SDS011;10161;41.188;-8.642;2023-11-21T09:47:02;3.07;;;2.07;;
20000;SDS011;10161;41.188;-8.642;2023-11-21T09:49:31;3.00;;;2.47;;
20000;SDS011;10161;41.188;-8.642;2023-11-21T09:52:00;2.50;;;2.00;;
20000;SDS011;10161;41.188;-8.642;2023-11-21T09:54:28;2.30;;;2.10;;
20000;SDS011;10161;41.188;-8.642;2023-11-21T09:56:56;2.33;;;2.13;;
20000;SDS011;10161;41.188;-8.642;2023-11-21T09:59:25;2.80;;;2.37;;
20000;SDS011;10161;41.188;-8.642;2023-11-21T10:01:57;3.23;;;2.10;;
20000;SDS011;10161;41.188;-8.642;2023-11-21T10:04:25;2.63;;;2.20;;
20000;SDS011;10161;41.188;-8.642;2023-11-21T10:06:53;4.90;;;2.70;;
20000;SDS011;10161;41.188;-8.642;2023-11-21T10:09:21;2.90;;;2.40;;
20000;SDS011;10161;41.188;-8.642;2023-11-21T10:11:49;2.20;;;1.90;;
20000;SDS011;10161;41.188;-8.642;2023-11-21T10:14:17;4.00;;;2.20;;
20000;SDS011;10161;41.188;-8.642;2023-11-21T10:16:46;4.13;;;2.27;;
20000;SDS011;10161;41.188;-8.642;2023-11-21T10:19:14;3.20;;;2.43;;
20000;SDS011;10161;41.188;-8.642;2023-11-21T10:21:42;4.70;;;2.40;;
20000;SDS011;10161;41.188;-8.642;2023-11-21T10:24:10;3.43;;;2.50;;
20000;SDS011;10161;41.188;-8.642;2023-11-21T10:26:38;2.47;;;2.00;;
20000;SDS011;10161;41.188;-8.642;2023-11-21T10:29:05;2.67;;;2.40;;
20000;SDS011;10161;41.188;-8.642;2023-11-21T10:31:32;2.30;;;2.10;;
20000;SDS011;10161;41.188;-8.642;2023-11-21T10:34:13;2.97;;;2.60;;
20000;SDS011;10161;41.188;-8.642;2023-11-21T10:36:41;4.33;;;2.60;;
20000;SDS011;10161;41.188;-8.642;2023-11-21T10:39:08;3.20;;;2.10;;
20000;SDS011;10161;41.188;-8.642;2023-11-21T10:41:37;2.30;;;2.10;;
20000;SDS011;10161;41.188;-8.642;2023-11-21T10:44:05;2.63;;;2.33;;
20000;SDS011;10161;41.188;-8.642;2023-11-21T10:46:34;2.97;;;2.30;;
20000;SDS011;10161;41.188;-8.642;2023-11-21T10:49:01;3.50;;;2.60;;
20000;SDS011;10161;41.188;-8.642;2023-11-21T10:51:28;4.10;;;2.20;;
20000;SDS011;10161;41.188;-8.642;2023-11-21T10:53:55;2.43;;;2.17;;
20000;SDS011;10161;41.188;-8.642;2023-11-21T10:56:24;3.60;;;2.37;;
20000;SDS011;10161;41.188;-8.642;2023-11-21T10:58:53;3.10;;;2.13;;
20000;SDS011;10161;41.188;-8.642;2023-11-21T11:01:20;2.90;;;2.40;;
20000;SDS011;10161;41.188;-8.642;2023-11-21T11:03:49;2.93;;;2.27;;
20000;SDS011;10161;41.188;-8.642;2023-11-21T11:06:19;3.30;;;2.70;;
20000;SDS011;10161;41.188;-8.642;2023-11-21T11:08:47;2.20;;;2.00;;
20000;SDS011;10161;41.188;-8.642;2023-11-21T11:11:14;2.83;;;2.20;;
20000;SDS011;10161;41.188;-8.642;2023-11-21T11:13:43;2.97;;;2.10;;
20000;SDS011;10161;41.188;-8.642;2023-11-21T11:16:12;2.43;;;2.17;;
20000;SDS011;10161;41.188;-8.642;2023-11-21T11:18:42;2.93;;;2.20;;
20000;SDS011;10161;41.188;-8.642;2023-11-21T11:21:13;2.63;;;2.20;;
20000;SDS011;10161;41.188;-8.642;2023-11-21T11:23:51;2.80;;;2.10;;
20000;SDS011;10161;41.188;-8.642;2023-11-21T11:26:28;2.57;;;2.00;;
20000;SDS011;10161;41.188;-8.642;2023-11-21T11:29:08;2.40;;;2.20;;
20000;SDS011;10161;41.188;-8.642;2023-11-21T11:31:44;3.23;;;2.43;;
20000;SDS011;10161;41.188;-8.642;2023-11-21T11:34:19;2.30;;;1.90;;
20000;SDS011;10161;41.188;-8.642;2023-11-21T11:36:53;2.13;;;1.93;;
20000;SDS011;10161;41.188;-8.642;2023-11-21T11:39:27;2.40;;;2.10;;
20000;SDS011;10161;41.188;-8.642;2023-11-21T11:41:55;2.50;;;1.97;;
20000;SDS011;10161;41.188;-8.642;2023-11-21T11:47:22;2.70;;;2.10;;
20000;SDS011;10161;41.188;-8.642;2023-11-21T11:50:02;2.20;;;1.70;;
20000;SDS011;10161;41.188;-8.642;2023-11-21T11:52:37;2.23;;;1.90;;
20000;SDS011;10161;41.188;-8.642;2023-11-21T11:55:06;2.77;;;2.10;;
20000;SDS011;10161;41.188;-8.642;2023-11-21T11:57:35;3.87;;;1.97;;
20000;SDS011;10161;41.188;-8.642;2023-11-21T12:00:07;3.30;;;2.10;;
20000;SDS011;10161;41.188;-8.642;2023-11-21T12:02:43;3.10;;;1.80;;
20000;SDS011;10161;41.188;-8.642;2023-11-21T12:05:11;2.70;;;2.23;;
20000;SDS011;10161;41.188;-8.642;2023-11-21T12:07:43;4.17;;;2.10;;
20000;SDS011;10161;41.188;-8.642;2023-11-21T12:10:12;2.03;;;1.80;;
20000;SDS011;10161;41.188;-8.642;2023-11-21T12:12:43;2.50;;;2.13;;
20000;SDS011;10161;41.188;-8.642;2023-11-21T12:15:11;3.33;;;2.20;;
20000;SDS011;10161;41.188;-8.642;2023-11-21T12:17:39;3.93;;;2.17;;
20000;SDS011;10161;41.188;-8.642;2023-11-21T12:20:08;4.10;;;2.20;;
20000;SDS011;10161;41.188;-8.642;2023-11-21T12:22:42;5.93;;;2.37;;
20000;SDS011;10161;41.188;-8.642;2023-11-21T12:25:09;2.20;;;2.00;;
20000;SDS011;10161;41.188;-8.642;2023-11-21T12:27:41;2.40;;;1.90;;
20000;SDS011;10161;41.188;-8.642;2023-11-21T12:30:10;2.63;;;2.10;;
20000;SDS011;10161;41.188;-8.642;2023-11-21T12:32:40;2.40;;;2.03;;
20000;SDS011;10161;41.188;-8.642;2023-11-21T12:35:09;2.00;;;1.77;;
20000;SDS011;10161;41.188;-8.642;2023-11-21T12:37:37;2.67;;;1.97;;
20000;SDS011;10161;41.188;-8.642;2023-11-21T12:40:05;2.20;;;2.00;;
20000;SDS011;10161;41.188;-8.642;2023-11-21T12:42:37;3.37;;;1.80;;
20000;SDS011;10161;41.188;-8.642;2023-11-21T12:45:08;3.77;;;2.00;;
20000;SDS011;10161;41.188;-8.642;2023-11-21T12:47:39;1.67;;;1.57;;
20000;SDS011;10161;41.188;-8.642;2023-11-21T12:50:07;3.13;;;2.00;;
20000;SDS011;10161;41.188;-8.642;2023-11-21T12:52:40;2.37;;;2.00;;
20000;SDS011;10161;41.188;-8.642;2023-11-21T12:55:09;4.97;;;2.00;;
20000;SDS011;10161;41.188;-8.642;2023-11-21T12:57:41;2.60;;;1.93;;
20000;SDS011;10161;41.188;-8.642;2023-11-21T13:00:10;2.17;;;1.97;;
20000;SDS011;10161;41.188;-8.642;2023-11-21T13:02:41;2.00;;;1.57;;
20000;SDS011;10161;41.188;-8.642;2023-11-21T13:05:10;3.03;;;2.40;;
20000;SDS011;10161;41.188;-8.642;2023-11-21T13:07:46;2.40;;;1.90;;
20000;SDS011;10161;41.188;-8.642;2023-11-21T13:10:14;2.33;;;2.03;;
20000;SDS011;10161;41.188;-8.642;2023-11-21T13:12:42;4.33;;;2.20;;
20000;SDS011;10161;41.188;-8.642;2023-11-21T13:15:13;3.63;;;2.00;;
20000;SDS011;10161;41.188;-8.642;2023-11-21T13:17:42;2.67;;;1.83;;
20000;SDS011;10161;41.188;-8.642;2023-11-21T13:20:12;2.37;;;2.00;;
20000;SDS011;10161;41.188;-8.642;2023-11-21T13:22:44;2.43;;;2.17;;
20000;SDS011;10161;41.188;-8.642;2023-11-21T13:25:14;3.17;;;2.23;;
20000;SDS011;10161;41.188;-8.642;2023-11-21T13:27:43;2.97;;;2.10;;
20000;SDS011;10161;41.188;-8.642;2023-11-21T13:30:11;4.30;;;2.53;;
20000;SDS011;10161;41.188;-8.642;2023-11-21T13:32:41;4.80;;;3.23;;
20000;SDS011;10161;41.188;-8.642;2023-11-21T13:35:09;6.23;;;3.50;;
20000;SDS011;10161;41.188;-8.642;2023-11-21T13:37:48;4.60;;;2.97;;
20000;SDS011;10161;41.188;-8.642;2023-11-21T13:40:19;4.70;;;2.83;;
20000;SDS011;10161;41.188;-8.642;2023-11-21T13:42:48;4.97;;;3.20;;
20000;SDS011;10161;41.188;-8.642;2023-11-21T13:45:19;3.63;;;2.63;;
20000;SDS011;10161;41.188;-8.642;2023-11-21T13:47:48;3.90;;;2.80;;
20000;SDS011;10161;41.188;-8.642;2023-11-21T13:50:18;3.13;;;2.67;;
20000;SDS011;10161;41.188;-8.642;2023-11-21T13:52:49;3.03;;;2.37;;
20000;SDS011;10161;41.188;-8.642;2023-11-21T13:55:18;3.20;;;2.43;;
20000;SDS011;10161;41.188;-8.642;2023-11-21T13:57:47;4.13;;;2.73;;
20000;SDS011;10161;41.188;-8.642;2023-11-21T14:00:17;4.63;;;2.90;;
20000;SDS011;10161;41.188;-8.642;2023-11-21T14:03:06;3.80;;;2.70;;
20000;SDS011;10161;41.188;-8.642;2023-11-21T14:05:41;4.30;;;2.70;;
20000;SDS011;10161;41.188;-8.642;2023-11-21T14:08:11;2.30;;;2.10;;
20000;SDS011;10161;41.188;-8.642;2023-11-21T14:10:41;4.47;;;2.17;;
20000;SDS011;10161;41.188;-8.642;2023-11-21T14:13:10;2.33;;;2.10;;
20000;SDS011;10161;41.188;-8.642;2023-11-21T14:15:38;3.30;;;2.30;;
20000;SDS011;10161;41.188;-8.642;2023-11-21T14:18:08;3.57;;;2.50;;
20000;SDS011;10161;41.188;-8.642;2023-11-21T14:20:37;3.90;;;2.33;;
20000;SDS011;10161;41.188;-8.642;2023-11-21T14:23:05;3.37;;;2.50;;
20000;SDS011;10161;41.188;-8.642;2023-11-21T14:25:33;2.90;;;2.10;;
20000;SDS011;10161;41.188;-8.642;2023-11-21T14:28:02;3.87;;;2.03;;
20000;SDS011;10161;41.188;-8.642;2023-11-21T14:30:31;4.00;;;2.33;;
20000;SDS011;10161;41.188;-8.642;2023-11-21T14:33:00;4.07;;;2.43;;
20000;SDS011;10161;41.188;-8.642;2023-11-21T14:35:27;2.90;;;2.00;;
20000;SDS011;10161;41.188;-8.642;2023-11-21T14:37:55;2.70;;;2.00;;
20000;SDS011;10161;41.188;-8.642;2023-11-21T14:40:23;3.00;;;2.10;;
20000;SDS011;10161;41.188;-8.642;2023-11-21T14:42:52;2.30;;;2.00;;